createdAt,value
2024-03-07T00:01:49.015Z,11.2
2024-03-07T00:07:24.456Z,11.1
2024-03-07T00:13:00.366Z,11
2024-03-07T00:18:36.121Z,10.9
2024-03-07T00:24:12.591Z,10.6
2024-03-07T00:29:48.199Z,10.5
2024-03-07T00:35:24.743Z,10.5
2024-03-07T00:41:01.018Z,10.4
2024-03-07T00:46:37.348Z,10.2
2024-03-07T00:52:12.877Z,10.1
2024-03-07T00:57:47.958Z,10.1
2024-03-07T01:03:23.530Z,10
2024-03-07T01:08:59.358Z,9.9
2024-03-07T01:14:34.984Z,9.8
2024-03-07T01:20:11.119Z,9.9
2024-03-07T01:25:51.074Z,9.8
2024-03-07T01:31:26.649Z,9.6
2024-03-07T01:37:03.064Z,9.5
2024-03-07T01:42:44.863Z,9.3
2024-03-07T01:48:20.400Z,9.3
2024-03-07T01:53:55.889Z,9.3
2024-03-07T01:59:32.248Z,9.2
2024-03-07T02:05:08.077Z,9.2
2024-03-07T02:10:43.335Z,9.3
2024-03-07T02:16:20.239Z,9.3
2024-03-07T02:21:56.117Z,9.3
2024-03-07T02:27:32.147Z,9.2
2024-03-07T02:33:08.619Z,9
2024-03-07T02:38:46.207Z,9.2
2024-03-07T02:44:22.494Z,9
2024-03-07T02:49:59.579Z,9.1
2024-03-07T02:55:34.688Z,9
2024-03-07T03:01:10.840Z,8.9
2024-03-07T03:06:47.370Z,9
2024-03-07T03:12:22.622Z,8.9
2024-03-07T03:17:57.947Z,8.8
2024-03-07T03:23:36.203Z,8.7
2024-03-07T03:29:12.152Z,8.6
2024-03-07T03:34:48.549Z,8.6
2024-03-07T03:40:25.180Z,8.8
2024-03-07T03:46:01.393Z,8.7
2024-03-07T03:51:36.986Z,8.7
2024-03-07T03:57:12.631Z,8.7
2024-03-07T04:02:47.846Z,8.5
2024-03-07T04:08:27.115Z,8.4
2024-03-07T04:14:03.922Z,8.6
2024-03-07T04:19:39.198Z,8.8
2024-03-07T04:25:14.432Z,8.6
2024-03-07T04:30:51.120Z,8.5
2024-03-07T04:36:27.350Z,8.6
2024-03-07T04:42:02.461Z,8.6
2024-03-07T04:47:39.536Z,8.5
2024-03-07T04:53:15.727Z,8.4
2024-03-07T04:58:52.131Z,8.2
2024-03-07T05:04:28.679Z,8.3
2024-03-07T05:10:03.998Z,8.4
2024-03-07T05:15:41.003Z,8.4
2024-03-07T05:21:18.472Z,8.4
2024-03-07T05:26:53.971Z,8.5
2024-03-07T05:32:31.316Z,8.7
2024-03-07T05:38:11.485Z,8.5
2024-03-07T05:43:47.609Z,8.5
2024-03-07T05:49:22.838Z,8.7
2024-03-07T05:54:59.024Z,8.5
2024-03-07T06:00:35.380Z,8.4
2024-03-07T06:06:11.410Z,7.3
2024-03-07T06:11:47.290Z,7.6
2024-03-07T06:17:23.609Z,6.9
2024-03-07T06:23:01.019Z,6.7
2024-03-07T06:28:37.099Z,6.2
2024-03-07T06:34:12.905Z,6.3
2024-03-07T06:39:48.393Z,6.6
2024-03-07T06:45:25.458Z,6.5
2024-03-07T06:51:00.619Z,6.9
2024-03-07T06:56:37.033Z,6.8
2024-03-07T07:02:13.725Z,7
2024-03-07T07:07:49.312Z,7.4
2024-03-07T07:13:24.250Z,7.2
2024-03-07T07:19:00.031Z,6.4
2024-03-07T07:24:35.591Z,7.1
2024-03-07T07:30:11.829Z,6.9
2024-03-07T07:35:47.728Z,7.5
2024-03-07T07:41:23.396Z,7
2024-03-07T07:46:59.574Z,7.9
2024-03-07T07:52:36.088Z,8.8
2024-03-07T07:58:12.260Z,7.8
2024-03-07T08:03:47.905Z,7.9
2024-03-07T08:09:24.465Z,9.4
2024-03-07T08:15:00.033Z,9.1
2024-03-07T08:20:36.639Z,9.9
2024-03-07T08:26:14.029Z,10.1
2024-03-07T08:31:50.174Z,9.5
2024-03-07T08:37:26.668Z,10.2
2024-03-07T08:43:02.664Z,10.5
2024-03-07T08:48:39.790Z,10.7
2024-03-07T08:54:16.903Z,11.5
2024-03-07T08:59:53.766Z,12.1
2024-03-07T09:05:31.438Z,12.1
2024-03-07T09:11:07.894Z,12.2
2024-03-07T09:16:44.581Z,12.8
2024-03-07T09:22:20.076Z,13.5
2024-03-07T09:27:55.669Z,14.2
2024-03-07T09:33:33.056Z,14.4
2024-03-07T09:39:10.816Z,13.8
2024-03-07T09:44:46.744Z,13.7
2024-03-07T09:50:24.227Z,13.8
2024-03-07T09:56:01.513Z,14.2
2024-03-07T10:01:36.795Z,14.5
2024-03-07T10:07:12.733Z,14.7
2024-03-07T10:12:48.739Z,14.9
2024-03-07T10:18:24.278Z,15.2
2024-03-07T10:24:01.314Z,15.5
2024-03-07T10:29:37.966Z,15.7
2024-03-07T10:35:13.784Z,15.9
2024-03-07T10:40:50.398Z,16
2024-03-07T10:46:25.926Z,16.3
2024-03-07T10:52:01.308Z,16.6
2024-03-07T10:57:37.610Z,16.9
2024-03-07T11:03:15.928Z,17
2024-03-07T11:08:51.497Z,16.8
2024-03-07T11:14:28.916Z,17
2024-03-07T11:20:04.435Z,16.9
2024-03-07T11:25:40.948Z,17.3
2024-03-07T11:31:17.274Z,17.5
2024-03-07T11:36:53.234Z,17.7
2024-03-07T11:42:29.815Z,17.9
2024-03-07T11:48:06.776Z,18.2
2024-03-07T11:53:44.222Z,18.2
2024-03-07T11:59:20.629Z,18.4
2024-03-07T12:04:57.133Z,18.5
2024-03-07T12:10:33.091Z,18.7
2024-03-07T12:16:08.808Z,18.9
2024-03-07T12:21:46.536Z,19
2024-03-07T12:27:21.688Z,19.3
2024-03-07T12:32:57.904Z,19.6
2024-03-07T12:38:35.681Z,19.8
2024-03-07T12:44:14.235Z,20.1
2024-03-07T12:49:49.795Z,20.3
2024-03-07T12:55:26.326Z,20.5
2024-03-07T13:01:01.840Z,20.8
2024-03-07T13:06:38.355Z,21.2
2024-03-07T13:12:14.852Z,21.3
2024-03-07T13:17:51.994Z,21.4
2024-03-07T13:23:28.874Z,21.7
2024-03-07T13:29:05.579Z,22
2024-03-07T13:34:41.160Z,22.1
2024-03-07T13:40:16.754Z,22.3
2024-03-07T13:45:53.333Z,22.8
2024-03-07T13:51:29.134Z,23.7
2024-03-07T13:57:05.286Z,24.2
2024-03-07T14:02:42.749Z,25.3
2024-03-07T14:08:18.589Z,24.9
2024-03-07T14:13:54.746Z,25.7
2024-03-07T14:19:30.717Z,25.9
2024-03-07T14:25:06.465Z,27.8
2024-03-07T14:30:43.442Z,28.5
2024-03-07T14:36:19.685Z,25.8
2024-03-07T14:41:55.419Z,25.4
2024-03-07T14:47:31.643Z,24.5
2024-03-07T14:53:08.813Z,23.9
2024-03-07T14:58:45.090Z,23.6
2024-03-07T15:04:20.694Z,22.9
2024-03-07T15:09:56.591Z,22.2
2024-03-07T15:15:32.435Z,21.8
2024-03-07T15:21:08.697Z,21.5
2024-03-07T15:26:46.945Z,21.1
2024-03-07T15:32:24.852Z,21.2
2024-03-07T15:38:01.887Z,21.2
2024-03-07T15:43:38.512Z,20.8
2024-03-07T15:49:14.185Z,20.9
2024-03-07T15:54:49.805Z,20.3
2024-03-07T16:00:26.034Z,20
2024-03-07T16:06:01.550Z,19.8
2024-03-07T16:11:38.862Z,19.9
2024-03-07T16:17:16.048Z,20.1
2024-03-07T16:22:52.169Z,20
2024-03-07T16:28:27.779Z,19.4
2024-03-07T16:34:04.358Z,18.9
2024-03-07T16:39:40.669Z,18.5
2024-03-07T16:45:16.714Z,18.3
2024-03-07T16:50:53.861Z,18.3
2024-03-07T16:56:30.145Z,18
2024-03-07T17:02:07.103Z,17.8
2024-03-07T17:07:43.849Z,17.7
2024-03-07T17:13:23.548Z,17.5
2024-03-07T17:18:59.152Z,17
2024-03-07T17:24:37.016Z,16.6
2024-03-07T17:30:14.867Z,16.3
2024-03-07T17:35:53.192Z,16
2024-03-07T17:41:31.387Z,15.6
2024-03-07T17:47:06.838Z,15.5
2024-03-07T17:52:43.609Z,15.3
2024-03-07T17:58:19.706Z,14.9
2024-03-07T18:03:55.474Z,15
2024-03-07T18:09:31.121Z,14.7
2024-03-07T18:15:13.781Z,14.7
2024-03-07T18:20:58.569Z,14.5
2024-03-07T18:26:34.464Z,14.4
2024-03-07T18:32:10.698Z,14.9
2024-03-07T18:37:46.463Z,15.3
2024-03-07T18:43:21.919Z,15.4
2024-03-07T18:48:58.007Z,15.4
2024-03-07T18:54:34.164Z,15.4
2024-03-07T19:00:09.712Z,15.5
2024-03-07T19:05:47.676Z,15.5
2024-03-07T19:11:25.442Z,15.4
2024-03-07T19:17:02.280Z,15.4
2024-03-07T19:22:38.522Z,15.3
2024-03-07T19:28:13.328Z,15.3
2024-03-07T19:33:50.853Z,15.3
2024-03-07T19:39:28.810Z,15.3
2024-03-07T19:45:04.874Z,15.2
2024-03-07T19:50:41.850Z,15.2
2024-03-07T19:56:19.886Z,15.2
2024-03-07T20:01:55.491Z,15.1
2024-03-07T20:07:31.085Z,15.1
2024-03-07T20:13:07.299Z,15.1
2024-03-07T20:18:43.492Z,15.1
2024-03-07T20:24:20.507Z,15
2024-03-07T20:29:56.767Z,14.9
2024-03-07T20:35:32.844Z,14.7
2024-03-07T20:41:09.138Z,14.7
2024-03-07T20:46:45.195Z,14.8
2024-03-07T20:52:20.438Z,14.8
2024-03-07T20:57:57.165Z,14.7
2024-03-07T21:03:34.919Z,14.7
2024-03-07T21:09:11.207Z,14.7
2024-03-07T21:14:47.194Z,14.6
2024-03-07T21:20:24.332Z,14.7
2024-03-07T21:26:01.000Z,14.7
2024-03-07T21:31:36.327Z,14.7
2024-03-07T21:37:11.919Z,14.5
2024-03-07T21:42:48.153Z,14.4
2024-03-07T21:48:24.855Z,14.5
2024-03-07T21:54:02.234Z,14.7
2024-03-07T21:59:39.412Z,14.6
2024-03-07T22:05:16.914Z,14.3
2024-03-07T22:10:54.410Z,14.3
2024-03-07T22:16:32.255Z,14.2
2024-03-07T22:22:09.088Z,14.2
2024-03-07T22:27:46.518Z,14.3
2024-03-07T22:33:23.838Z,14.3
2024-03-07T22:39:00.808Z,14.1
2024-03-07T22:44:38.674Z,14.1
2024-03-07T22:50:18.341Z,14.1
2024-03-07T22:56:08.724Z,14.1
2024-03-07T23:01:48.413Z,14
2024-03-07T23:07:27.348Z,13.9
2024-03-07T23:13:03.303Z,13.8
2024-03-07T23:18:42.096Z,13.8
2024-03-07T23:24:20.453Z,13.9
2024-03-07T23:29:56.957Z,13.9
2024-03-07T23:35:36.364Z,13.8
2024-03-07T23:41:14.082Z,13.7
2024-03-07T23:46:50.466Z,13.6
2024-03-07T23:52:26.958Z,13.7
2024-03-07T23:58:03.654Z,13.7
